| time (UTC) | temp C | wind direction | speed KPH | gust KPH | rain 1hr cm | rain 24hr cm | rain mn cm | humidity % | barometer mb |
| 20260504190226 | 27 | 269 | 12.9 | 29.0 | 0.00 | 0.00 | 0.00 | 25 | 998.5 |
| 20260504184726 | 27 | 274 | 8.0 | 27.4 | 0.00 | 0.00 | 0.00 | 29 | 998.5 |
| 20260504183226 | 26 | 261 | 11.3 | 29.0 | 0.00 | 0.00 | 0.00 | 32 | 998.6 |
| 20260504181726 | 26 | 281 | 14.5 | 35.4 | 0.00 | 0.00 | 0.00 | 30 | 998.7 |
| 20260504180226 | 26 | 272 | 8.0 | 27.4 | 0.00 | 0.00 | 0.00 | 33 | 998.6 |
| 20260504174726 | 26 | 312 | 11.3 | 29.0 | 0.00 | 0.00 | 0.00 | 30 | 998.6 |
| 20260504173225 | 26 | 319 | 6.4 | 22.5 | 0.00 | 0.00 | 0.00 | 30 | 998.5 |
| 20260504171726 | 26 | 288 | 8.0 | 38.6 | 0.00 | 0.00 | 0.00 | 31 | 998.5 |
| 20260504170226 | 26 | 249 | 12.9 | 27.4 | 0.00 | 0.00 | 0.00 | 34 | 998.5 |
| 20260504160225 | 24 | 216 | 9.7 | 17.7 | 0.00 | 0.00 | 0.00 | 42 | 998.7 |
| 20260504150225 | 21 | 261 | 0.0 | 16.1 | 0.00 | 0.00 | 0.00 | 50 | 999.3 |
| 20260504140226 | 17 | 271 | 6.4 | 17.7 | 0.00 | 0.00 | 0.00 | 52 | 999.6 |
| 20260504130226 | 15 | 216 | 0.0 | 0.0 | 0.00 | 0.00 | 0.00 | 57 | 999.8 |
| 20260504120225 | 11 | 238 | 0.0 | 0.0 | 0.00 | 0.00 | 0.00 | 67 | 999.9 |
| 20260504110225 | 10 | 209 | 0.0 | 0.0 | 0.00 | 0.00 | 0.00 | 68 | 1000.3 |
| 20260504100226 | 11 | 231 | 0.0 | 0.0 | 0.00 | 0.00 | 0.00 | 62 | 1001.0 |
| 20260504081722 | 12 | 212 | 0.0 | 0.0 | 0.00 | 0.00 | 0.00 | 54 | 1001.8 |
| 20260504080222 | 12 | 228 | 0.0 | 0.0 | 0.00 | 0.00 | 0.00 | 54 | 1002.1 |
| 20260504070222 | 13 | 215 | 0.0 | 0.0 | 0.00 | 0.00 | 0.00 | 49 | 1003.1 |
| 20260504060222 | 13 | 209 | 0.0 | 0.0 | 0.00 | 0.00 | 0.00 | 50 | 1004.0 |
| 20260504050222 | 11 | 249 | 0.0 | 0.0 | 0.00 | 0.00 | 0.00 | 59 | 1004.3 |
| 20260504044722 | 11 | 249 | 0.0 | 0.0 | 0.00 | 0.00 | 0.00 | 55 | 1004.3 |
| 20260504043222 | 12 | 249 | 0.0 | 0.0 | 0.00 | 0.00 | 0.00 | 53 | 1004.6 |
| 20260504041722 | 12 | 249 | 0.0 | 0.0 | 0.00 | 0.00 | 0.00 | 52 | 1004.6 |
| 20260504040222 | 14 | 249 | 0.0 | 0.0 | 0.00 | 0.00 | 0.00 | 48 | 1004.8 |
| 20260504034722 | 15 | 249 | 0.0 | 0.0 | 0.00 | 0.00 | 0.00 | 41 | 1005.0 |
| 20260504033222 | 16 | 240 | 0.0 | 0.0 | 0.00 | 0.00 | 0.00 | 39 | 1005.3 |
| 20260504031722 | 16 | 251 | 0.0 | 0.0 | 0.00 | 0.00 | 0.00 | 39 | 1005.5 |
| 20260504030222 | 16 | 255 | 0.0 | 0.0 | 0.00 | 0.00 | 0.00 | 38 | 1005.6 |
| 20260504024722 | 16 | 248 | 0.0 | 0.0 | 0.00 | 0.00 | 0.00 | 39 | 1005.5 |
| 20260504023222 | 16 | 252 | 0.0 | 0.0 | 0.00 | 0.00 | 0.00 | 38 | 1005.4 |
| 20260504021722 | 17 | 251 | 0.0 | 0.0 | 0.00 | 0.00 | 0.00 | 36 | 1005.4 |
| 20260504020222 | 17 | 262 | 0.0 | 0.0 | 0.00 | 0.00 | 0.00 | 35 | 1005.3 |
| 20260504014722 | 17 | 245 | 0.0 | 0.0 | 0.00 | 0.00 | 0.00 | 33 | 1005.3 |
| 20260504013222 | 18 | 263 | 0.0 | 0.0 | 0.00 | 0.00 | 0.00 | 31 | 1005.2 |
| 20260504011722 | 19 | 255 | 0.0 | 0.0 | 0.00 | 0.00 | 0.00 | 30 | 1005.2 |
| 20260504010222 | 20 | 265 | 0.0 | 0.0 | 0.00 | 0.00 | 0.00 | 27 | 1005.2 |
| 20260504004722 | 21 | 250 | 0.0 | 0.0 | 0.00 | 0.00 | 0.00 | 25 | 1005.2 |
| 20260504003222 | 22 | 257 | 4.8 | 8.0 | 0.00 | 0.00 | 0.00 | 24 | 1005.2 |
| 20260504001722 | 22 | 260 | 0.0 | 8.0 | 0.00 | 0.00 | 0.00 | 23 | 1005.2 |
| 20260504000222 | 22 | 291 | 4.8 | 11.3 | 0.00 | 0.00 | 0.00 | 22 | 1005.3 |
| 20260503234722 | 23 | 319 | 0.0 | 12.9 | 0.00 | 0.00 | 0.00 | 22 | 1005.3 |
| 20260503233222 | 23 | 305 | 6.4 | 11.3 | 0.00 | 0.00 | 0.00 | 22 | 1005.5 |
| 20260503231722 | 23 | 262 | 0.0 | 9.7 | 0.00 | 0.00 | 0.00 | 21 | 1005.5 |
| 20260503230222 | 23 | 321 | 6.4 | 16.1 | 0.00 | 0.00 | 0.00 | 22 | 1005.5 |
| 20260503224722 | 23 | 333 | 0.0 | 20.9 | 0.00 | 0.00 | 0.00 | 25 | 1005.8 |
| 20260503223222 | 22 | 302 | 9.7 | 20.9 | 0.00 | 0.00 | 0.00 | 21 | 1005.9 |
| 20260503221722 | 22 | 309 | 9.7 | 22.5 | 0.00 | 0.00 | 0.00 | 23 | 1005.8 |
| 20260503220222 | 22 | 290 | 8.0 | 20.9 | 0.00 | 0.00 | 0.00 | 24 | 1005.8 |
| 20260503214722 | 22 | 360 | 8.0 | 17.7 | 0.00 | 0.00 | 0.00 | 25 | 1005.8 |
| 20260503213222 | 23 | 8 | 3.2 | 19.3 | 0.00 | 0.00 | 0.00 | 25 | 1005.8 |
| 20260503211722 | 23 | 315 | 11.3 | 16.1 | 0.00 | 0.00 | 0.00 | 25 | 1005.6 |
| 20260503210222 | 23 | 332 | 4.8 | 20.9 | 0.00 | 0.00 | 0.00 | 26 | 1005.8 |
| 20260503204722 | 23 | 305 | 0.0 | 19.3 | 0.00 | 0.00 | 0.00 | 27 | 1005.8 |
| 20260503203222 | 23 | 285 | 6.4 | 17.7 | 0.00 | 0.00 | 0.00 | 28 | 1006.0 |
| 20260503201722 | 23 | 307 | 9.7 | 17.7 | 0.00 | 0.00 | 0.00 | 27 | 1006.0 |
| 20260503200222 | 23 | 300 | 11.3 | 24.1 | 0.00 | 0.00 | 0.00 | 27 | 1006.2 |
| 20260503194722 | 23 | 321 | 17.7 | 19.3 | 0.00 | 0.00 | 0.00 | 29 | 1006.4 |
| 20260503193222 | 23 | 299 | 1.6 | 25.7 | 0.00 | 0.00 | 0.00 | 29 | 1006.3 |
| 20260503191722 | 23 | 299 | 4.8 | 25.7 | 0.00 | 0.00 | 0.00 | 28 | 1006.4 |